createdAt,value
2022-11-08T00:00:43.787Z,99.90
2022-11-08T00:03:12.118Z,99.90
2022-11-08T00:05:58.949Z,99.90
2022-11-08T00:08:44.516Z,99.90
2022-11-08T00:11:30.110Z,99.90
2022-11-08T00:13:59.776Z,99.90
2022-11-08T00:16:28.528Z,99.90
2022-11-08T00:18:56.725Z,99.90
2022-11-08T00:21:26.353Z,99.90
2022-11-08T00:23:55.337Z,99.90
2022-11-08T00:26:23.651Z,99.90
2022-11-08T00:28:52.382Z,99.90
2022-11-08T00:31:20.682Z,99.90
2022-11-08T00:33:48.931Z,99.90
2022-11-08T00:36:17.248Z,99.90
2022-11-08T00:38:47.154Z,99.90
2022-11-08T00:41:15.373Z,99.90
2022-11-08T00:43:43.597Z,99.90
2022-11-08T00:46:11.838Z,99.90
2022-11-08T00:48:40.046Z,99.90
2022-11-08T00:51:10.837Z,99.90
2022-11-08T00:53:40.063Z,99.90
2022-11-08T00:56:12.481Z,99.90
2022-11-08T00:58:41.795Z,99.90
2022-11-08T01:01:11.509Z,99.90
2022-11-08T01:03:40.287Z,99.90
2022-11-08T01:06:10.561Z,99.90
2022-11-08T01:08:39.260Z,99.90
2022-11-08T01:11:11.853Z,99.90
2022-11-08T01:13:40.337Z,99.90
2022-11-08T01:16:09.836Z,99.90
2022-11-08T01:18:38.392Z,99.90
2022-11-08T01:21:07.255Z,99.90
2022-11-08T01:23:36.382Z,99.90
2022-11-08T01:26:06.894Z,99.90
2022-11-08T01:28:37.382Z,99.90
2022-11-08T01:31:06.847Z,99.90
2022-11-08T01:33:35.400Z,99.90
2022-11-08T01:36:03.575Z,99.90
2022-11-08T01:38:31.826Z,99.90
2022-11-08T01:41:00.020Z,99.90
2022-11-08T01:43:41.743Z,99.90
2022-11-08T01:46:45.682Z,99.90
2022-11-08T01:49:34.936Z,99.90
2022-11-08T01:52:13.580Z,99.90
2022-11-08T01:54:47.402Z,99.90
2022-11-08T01:57:19.099Z,99.90
2022-11-08T01:59:52.654Z,99.90
2022-11-08T02:02:21.915Z,99.90
2022-11-08T02:04:52.499Z,99.90
2022-11-08T02:07:20.881Z,99.90
2022-11-08T02:09:49.588Z,99.90
2022-11-08T02:12:22.127Z,99.90
2022-11-08T02:14:51.892Z,99.90
2022-11-08T02:17:20.297Z,99.90
2022-11-08T02:19:51.464Z,99.90
2022-11-08T02:22:30.243Z,99.90
2022-11-08T02:25:00.364Z,99.90
2022-11-08T02:27:28.877Z,99.90
2022-11-08T02:30:00.216Z,99.90
2022-11-08T02:32:37.844Z,99.90
2022-11-08T02:35:10.586Z,99.90
2022-11-08T02:37:38.937Z,99.90
2022-11-08T02:40:10.127Z,99.90
2022-11-08T02:42:39.630Z,99.90
2022-11-08T02:45:09.710Z,99.90
2022-11-08T02:47:38.035Z,99.90
2022-11-08T02:50:07.221Z,99.90
2022-11-08T02:52:35.463Z,99.90
2022-11-08T02:55:03.897Z,99.90
2022-11-08T02:57:33.846Z,99.90
2022-11-08T03:00:02.054Z,99.90
2022-11-08T03:02:30.423Z,99.90
2022-11-08T03:04:58.954Z,99.90
2022-11-08T03:07:27.133Z,99.90
2022-11-08T03:09:55.431Z,99.90
2022-11-08T03:12:23.696Z,99.90
2022-11-08T03:14:53.419Z,99.90
2022-11-08T03:17:21.701Z,99.90
2022-11-08T03:19:49.960Z,99.90
2022-11-08T03:22:18.285Z,99.90
2022-11-08T03:24:46.591Z,99.90
2022-11-08T03:27:15.401Z,99.90
2022-11-08T03:29:43.753Z,99.90
2022-11-08T03:32:13.567Z,99.90
2022-11-08T03:34:42.428Z,99.90
2022-11-08T03:37:11.598Z,99.90
2022-11-08T03:39:39.882Z,99.90
2022-11-08T03:42:08.168Z,99.90
2022-11-08T03:44:36.367Z,99.90
2022-11-08T03:47:04.669Z,99.90
2022-11-08T03:49:34.350Z,99.90
2022-11-08T03:52:02.752Z,99.90
2022-11-08T03:54:31.116Z,99.90
2022-11-08T03:56:59.386Z,99.90
2022-11-08T03:59:27.585Z,99.90
2022-11-08T04:01:56.075Z,99.90
2022-11-08T04:04:24.565Z,99.90
2022-11-08T04:06:54.212Z,99.90
2022-11-08T04:09:22.536Z,99.90
2022-11-08T04:12:08.162Z,99.90
2022-11-08T04:14:54.134Z,99.90
2022-11-08T04:17:42.342Z,99.90
2022-11-08T04:20:28.721Z,99.90
2022-11-08T04:22:58.334Z,99.90
2022-11-08T04:25:31.148Z,99.90
2022-11-08T04:28:02.229Z,99.90
2022-11-08T04:30:30.547Z,99.90
2022-11-08T04:33:01.366Z,99.90
2022-11-08T04:35:29.957Z,99.90
2022-11-08T04:38:00.927Z,99.90
2022-11-08T04:40:31.093Z,99.90
2022-11-08T04:42:59.432Z,99.90
2022-11-08T04:45:27.705Z,99.90
2022-11-08T04:47:56.069Z,99.90
2022-11-08T04:50:24.622Z,99.90
2022-11-08T04:52:53.719Z,99.90
2022-11-08T04:55:24.056Z,99.90
2022-11-08T04:57:52.484Z,99.90
2022-11-08T05:00:20.933Z,99.90
2022-11-08T05:02:49.148Z,99.90
2022-11-08T05:05:17.615Z,99.90
2022-11-08T05:07:46.020Z,99.90
2022-11-08T05:10:14.580Z,99.90
2022-11-08T05:12:44.272Z,99.90
2022-11-08T05:15:13.564Z,99.90
2022-11-08T05:17:41.759Z,99.90
2022-11-08T05:20:29.367Z,99.90
2022-11-08T05:23:19.586Z,99.90
2022-11-08T05:25:47.824Z,99.90
2022-11-08T05:28:17.845Z,99.90
2022-11-08T05:30:46.235Z,99.90
2022-11-08T05:33:15.850Z,99.90
2022-11-08T05:35:44.017Z,99.90
2022-11-08T05:38:12.260Z,99.90
2022-11-08T05:40:40.679Z,99.90
2022-11-08T05:43:08.962Z,99.90
2022-11-08T05:45:39.464Z,99.90
2022-11-08T05:48:08.231Z,99.90
2022-11-08T05:50:37.368Z,99.90
2022-11-08T05:53:13.389Z,99.90
2022-11-08T05:55:42.948Z,99.90
2022-11-08T05:58:11.250Z,99.90
2022-11-08T06:00:40.928Z,99.90
2022-11-08T06:03:09.547Z,99.90
2022-11-08T06:05:37.921Z,99.90
2022-11-08T06:08:06.267Z,99.90
2022-11-08T06:10:34.385Z,99.90
2022-11-08T06:13:02.869Z,99.90
2022-11-08T06:15:31.209Z,99.90
2022-11-08T06:18:04.722Z,99.90
2022-11-08T06:20:33.276Z,99.90
2022-11-08T06:23:01.385Z,99.90
2022-11-08T06:25:29.586Z,99.90
2022-11-08T06:27:59.994Z,99.90
2022-11-08T06:30:28.249Z,99.90
2022-11-08T06:32:59.875Z,99.90
2022-11-08T06:35:29.466Z,99.90
2022-11-08T06:38:00.691Z,99.90
2022-11-08T06:40:31.070Z,99.90
2022-11-08T06:42:59.731Z,99.90
2022-11-08T06:45:28.663Z,99.90
2022-11-08T06:47:59.099Z,99.90
2022-11-08T06:50:30.178Z,99.90
2022-11-08T06:52:59.511Z,99.90
2022-11-08T06:55:27.995Z,99.90
2022-11-08T06:57:56.374Z,99.90
2022-11-08T07:00:25.406Z,99.90
2022-11-08T07:02:54.362Z,99.90
2022-11-08T07:05:22.734Z,99.90
2022-11-08T07:07:52.919Z,99.90
2022-11-08T07:10:22.979Z,99.90
2022-11-08T07:12:59.740Z,99.90
2022-11-08T07:15:27.953Z,99.90
2022-11-08T07:17:56.253Z,99.90
2022-11-08T07:20:24.405Z,99.90
2022-11-08T07:22:57.851Z,99.90
2022-11-08T07:25:26.729Z,99.90
2022-11-08T07:27:56.240Z,99.90
2022-11-08T07:30:24.493Z,99.90
2022-11-08T07:32:53.141Z,99.90
2022-11-08T07:35:21.302Z,99.90
2022-11-08T07:37:49.461Z,99.90
2022-11-08T07:40:19.092Z,99.90
2022-11-08T07:43:10.683Z,99.90
2022-11-08T07:45:35.793Z,99.90
2022-11-08T07:48:11.420Z,99.90
2022-11-08T07:50:41.283Z,99.90
2022-11-08T07:53:09.676Z,99.90
2022-11-08T07:55:39.918Z,99.90
2022-11-08T07:58:09.477Z,99.90
2022-11-08T08:00:39.360Z,99.90
2022-11-08T08:03:09.227Z,99.90
2022-11-08T08:05:39.427Z,99.90
2022-11-08T08:08:08.256Z,99.90
2022-11-08T08:10:36.892Z,99.90
2022-11-08T08:13:07.449Z,99.90
2022-11-08T08:15:36.817Z,99.90
2022-11-08T08:18:09.551Z,99.90
2022-11-08T08:20:38.851Z,99.90
2022-11-08T08:23:07.798Z,99.90
2022-11-08T08:25:36.111Z,99.90
2022-11-08T08:28:05.823Z,99.90
2022-11-08T08:30:35.699Z,99.90
2022-11-08T08:35:55.298Z,99.90
2022-11-08T08:38:25.026Z,99.90
2022-11-08T08:40:53.312Z,99.90
2022-11-08T08:43:22.045Z,99.90
2022-11-08T08:45:51.977Z,99.90
2022-11-08T08:48:20.091Z,99.90
2022-11-08T08:50:48.388Z,99.90
2022-11-08T08:53:17.433Z,99.90
2022-11-08T08:55:45.882Z,99.90
2022-11-08T08:58:14.070Z,99.90
2022-11-08T09:03:34.566Z,99.90
2022-11-08T09:06:03.099Z,99.90
2022-11-08T09:08:31.939Z,99.90
2022-11-08T09:11:01.646Z,99.90
2022-11-08T09:13:31.894Z,99.90
2022-11-08T09:16:01.752Z,99.90
2022-11-08T09:18:30.350Z,99.90
2022-11-08T09:21:00.664Z,99.90
2022-11-08T09:23:29.216Z,99.90
2022-11-08T09:25:58.936Z,99.90
2022-11-08T09:28:31.320Z,99.90
2022-11-08T09:31:09.140Z,99.90
2022-11-08T09:33:39.053Z,99.90
2022-11-08T09:36:12.530Z,99.90
2022-11-08T09:38:42.089Z,99.90
2022-11-08T09:41:33.447Z,99.90
2022-11-08T09:44:12.625Z,99.90
2022-11-08T09:46:45.488Z,99.90
2022-11-08T09:49:19.621Z,99.90
2022-11-08T09:51:49.911Z,99.90
2022-11-08T09:54:24.232Z,99.90
2022-11-08T09:56:55.439Z,99.90
2022-11-08T09:59:35.343Z,99.90
2022-11-08T10:02:03.844Z,99.90
2022-11-08T10:04:33.790Z,99.90
2022-11-08T10:07:20.332Z,99.90
2022-11-08T10:10:06.629Z,99.90
2022-11-08T10:12:41.695Z,99.90
2022-11-08T10:15:18.551Z,99.90
2022-11-08T10:18:12.123Z,99.90
2022-11-08T10:20:51.569Z,99.90
2022-11-08T10:23:28.575Z,99.90
2022-11-08T10:26:00.998Z,99.90
2022-11-08T10:28:36.125Z,99.90
2022-11-08T10:31:05.359Z,99.90
2022-11-08T10:33:38.118Z,99.90
2022-11-08T10:36:13.564Z,99.90
2022-11-08T10:38:51.389Z,99.90
2022-11-08T10:41:26.961Z,99.90
2022-11-08T10:43:59.875Z,99.90
2022-11-08T10:46:39.254Z,99.90
2022-11-08T10:49:17.730Z,99.90
2022-11-08T10:51:47.204Z,99.70
2022-11-08T10:54:42.969Z,99.90
2022-11-08T10:57:12.828Z,99.20
2022-11-08T10:59:41.460Z,99.90
2022-11-08T11:02:25.258Z,99.90
2022-11-08T11:04:54.990Z,99.30
2022-11-08T11:07:37.878Z,98.30
2022-11-08T11:10:24.908Z,99.40
2022-11-08T11:13:00.993Z,99.40
2022-11-08T11:15:33.371Z,99.30
2022-11-08T11:18:01.627Z,98.90
2022-11-08T11:20:31.231Z,99.00
2022-11-08T11:23:01.318Z,99.30
2022-11-08T11:25:30.836Z,99.00
2022-11-08T11:28:01.298Z,99.40
2022-11-08T11:30:34.093Z,99.80
2022-11-08T11:33:10.485Z,99.30
2022-11-08T11:35:45.200Z,98.50
2022-11-08T11:38:25.591Z,98.90
2022-11-08T11:41:00.657Z,99.00
2022-11-08T11:43:35.132Z,99.20
2022-11-08T11:46:09.992Z,99.40
2022-11-08T11:48:43.328Z,99.20
2022-11-08T11:51:12.053Z,99.20
2022-11-08T11:53:47.524Z,98.80
2022-11-08T11:56:43.521Z,99.00
2022-11-08T11:59:39.481Z,99.30
2022-11-08T12:02:39.092Z,99.70
2022-11-08T12:05:29.951Z,99.60
2022-11-08T12:08:09.811Z,99.40
2022-11-08T12:10:51.440Z,99.30
2022-11-08T12:13:30.698Z,99.10
2022-11-08T12:16:06.782Z,99.30
2022-11-08T12:18:56.385Z,99.90
2022-11-08T12:21:33.955Z,99.90
2022-11-08T12:24:23.148Z,99.50
2022-11-08T12:26:58.884Z,99.30
2022-11-08T12:29:32.062Z,99.40
2022-11-08T12:32:28.280Z,98.80
2022-11-08T12:35:15.508Z,99.30
2022-11-08T12:37:57.601Z,99.30
2022-11-08T12:40:36.159Z,99.40
2022-11-08T12:43:20.978Z,99.90
2022-11-08T12:46:03.142Z,99.30
2022-11-08T12:48:50.950Z,99.80
2022-11-08T12:51:26.918Z,99.30
2022-11-08T12:54:12.248Z,99.90
2022-11-08T12:56:45.074Z,99.10
2022-11-08T12:59:21.329Z,99.10
2022-11-08T13:01:51.710Z,99.90
2022-11-08T13:04:36.785Z,99.80
2022-11-08T13:07:13.085Z,99.90
2022-11-08T13:09:47.544Z,99.20
2022-11-08T13:12:31.932Z,99.40
2022-11-08T13:15:01.500Z,99.20
2022-11-08T13:17:32.036Z,98.90
2022-11-08T13:20:06.464Z,99.40
2022-11-08T13:22:47.770Z,99.10
2022-11-08T13:25:35.407Z,99.10
2022-11-08T13:28:03.656Z,98.70
2022-11-08T13:30:40.905Z,98.70
2022-11-08T13:33:17.233Z,98.50
2022-11-08T13:35:57.474Z,98.60
2022-11-08T13:38:36.372Z,98.90
2022-11-08T13:41:18.404Z,98.60
2022-11-08T13:43:47.801Z,98.00
2022-11-08T13:46:48.934Z,98.10
2022-11-08T13:49:24.267Z,98.60
2022-11-08T13:52:30.842Z,97.90
2022-11-08T13:54:59.109Z,97.00
2022-11-08T13:57:59.940Z,98.20
2022-11-08T14:00:44.398Z,97.70
2022-11-08T14:03:46.302Z,97.60
2022-11-08T14:06:24.258Z,97.30
2022-11-08T14:09:02.814Z,97.80
2022-11-08T14:11:53.376Z,97.30
2022-11-08T14:14:37.122Z,97.50
2022-11-08T14:17:20.609Z,97.60
2022-11-08T14:19:49.545Z,97.30
2022-11-08T14:22:23.536Z,97.40
2022-11-08T14:24:54.560Z,97.50
2022-11-08T14:27:37.749Z,97.60
2022-11-08T14:30:12.191Z,97.80
2022-11-08T14:32:40.562Z,98.30
2022-11-08T14:35:20.761Z,98.40
2022-11-08T14:37:50.468Z,98.60
2022-11-08T14:40:20.896Z,98.70
2022-11-08T14:42:50.611Z,99.30
2022-11-08T14:45:25.722Z,99.50
2022-11-08T14:47:59.736Z,99.80
2022-11-08T14:50:32.772Z,99.90
2022-11-08T14:53:27.295Z,99.90
2022-11-08T14:56:03.716Z,99.90
2022-11-08T14:58:32.351Z,99.90
2022-11-08T15:01:02.843Z,99.90
2022-11-08T15:03:33.058Z,99.90
2022-11-08T15:06:13.808Z,99.90
2022-11-08T15:08:55.382Z,99.90
2022-11-08T15:11:29.606Z,99.90
2022-11-08T15:14:01.840Z,99.90
2022-11-08T15:16:40.166Z,99.90
2022-11-08T15:19:31.135Z,99.90
2022-11-08T15:22:01.140Z,99.90
2022-11-08T15:24:36.862Z,99.90
2022-11-08T15:27:16.025Z,99.90
2022-11-08T15:29:55.176Z,99.90
2022-11-08T15:32:23.902Z,99.90
2022-11-08T15:34:55.439Z,99.90
2022-11-08T15:37:31.005Z,99.90
2022-11-08T15:40:03.739Z,99.90
2022-11-08T15:42:32.950Z,99.90
2022-11-08T15:45:04.862Z,99.90
2022-11-08T15:47:47.039Z,99.90
2022-11-08T15:50:18.617Z,99.90
2022-11-08T15:52:48.337Z,99.90
2022-11-08T15:55:20.882Z,99.90
2022-11-08T15:57:49.899Z,99.90
2022-11-08T16:00:24.102Z,99.90
2022-11-08T16:02:53.104Z,99.90
2022-11-08T16:05:23.678Z,99.90
2022-11-08T16:07:52.398Z,99.90
2022-11-08T16:10:30.335Z,99.90
2022-11-08T16:13:01.027Z,99.90
2022-11-08T16:15:32.177Z,99.90
2022-11-08T16:18:01.235Z,99.90
2022-11-08T16:20:31.372Z,99.90
2022-11-08T16:23:00.942Z,99.90
2022-11-08T16:25:32.209Z,99.90
2022-11-08T16:28:08.299Z,99.90
2022-11-08T16:30:37.018Z,99.90
2022-11-08T16:33:19.739Z,99.90
2022-11-08T16:35:47.803Z,99.90
2022-11-08T16:38:16.535Z,99.90
2022-11-08T16:40:48.665Z,99.90
2022-11-08T16:43:17.924Z,99.90
2022-11-08T16:48:35.964Z,99.90
2022-11-08T16:51:06.424Z,99.90
2022-11-08T16:53:38.625Z,99.90
2022-11-08T16:56:08.550Z,99.90
2022-11-08T16:58:36.666Z,99.90
2022-11-08T17:01:10.509Z,99.90
2022-11-08T17:03:41.195Z,99.90
2022-11-08T17:06:15.605Z,99.90
2022-11-08T17:08:43.910Z,99.90
2022-11-08T17:11:17.698Z,99.90
2022-11-08T17:13:45.755Z,99.90
2022-11-08T17:16:14.314Z,99.90
2022-11-08T17:18:42.575Z,99.90
2022-11-08T17:21:43.234Z,99.90
2022-11-08T17:24:02.610Z,99.90
2022-11-08T17:26:33.389Z,99.90
2022-11-08T17:29:01.700Z,99.90
2022-11-08T17:31:29.861Z,99.90
2022-11-08T17:33:58.024Z,99.90
2022-11-08T17:36:28.641Z,99.90
2022-11-08T17:38:56.767Z,99.90
2022-11-08T17:41:25.050Z,99.90
2022-11-08T17:43:54.510Z,99.90
2022-11-08T17:46:24.756Z,99.90
2022-11-08T17:48:53.316Z,99.90
2022-11-08T17:51:21.464Z,99.90
2022-11-08T17:53:49.660Z,99.90
2022-11-08T17:56:17.869Z,99.90
2022-11-08T17:58:46.092Z,99.90
2022-11-08T18:01:16.642Z,99.90
2022-11-08T18:03:45.163Z,99.90
2022-11-08T18:06:16.491Z,99.90
2022-11-08T18:08:45.042Z,99.90
2022-11-08T18:11:13.443Z,99.90
2022-11-08T18:13:42.200Z,99.90
2022-11-08T18:16:12.557Z,99.90
2022-11-08T18:18:42.892Z,99.90
2022-11-08T18:21:11.680Z,99.90
2022-11-08T18:23:41.357Z,99.90
2022-11-08T18:26:12.888Z,99.90
2022-11-08T18:28:42.889Z,99.90
2022-11-08T18:31:14.598Z,99.90
2022-11-08T18:33:44.660Z,99.90
2022-11-08T18:36:15.139Z,99.90
2022-11-08T18:38:45.741Z,99.90
2022-11-08T18:41:17.850Z,99.90
2022-11-08T18:43:46.439Z,99.90
2022-11-08T18:46:17.573Z,99.90
2022-11-08T18:48:47.683Z,99.90
2022-11-08T18:51:17.504Z,99.90
2022-11-08T18:53:46.197Z,99.90
2022-11-08T18:56:14.937Z,99.90
2022-11-08T18:58:45.376Z,99.90
2022-11-08T19:01:14.244Z,99.90
2022-11-08T19:03:42.553Z,99.90
2022-11-08T19:06:12.019Z,99.90
2022-11-08T19:08:42.357Z,99.90
2022-11-08T19:11:12.980Z,99.90
2022-11-08T19:13:42.112Z,99.90
2022-11-08T19:16:14.232Z,99.90
2022-11-08T19:18:43.374Z,99.90
2022-11-08T19:21:16.741Z,99.90
2022-11-08T19:23:45.882Z,99.90
2022-11-08T19:26:16.150Z,99.90
2022-11-08T19:28:46.525Z,99.90
2022-11-08T19:31:20.324Z,99.90
2022-11-08T19:33:53.027Z,99.90
2022-11-08T19:36:25.046Z,99.90
2022-11-08T19:38:54.061Z,99.90
2022-11-08T19:41:27.783Z,99.90
2022-11-08T19:43:57.305Z,99.90
2022-11-08T19:46:31.458Z,99.90
2022-11-08T19:49:02.674Z,99.90
2022-11-08T19:51:35.402Z,99.90
2022-11-08T19:54:05.927Z,99.90
2022-11-08T19:57:03.620Z,99.90
2022-11-08T19:59:31.493Z,99.90
2022-11-08T20:02:00.025Z,99.90
2022-11-08T20:04:28.514Z,99.90
2022-11-08T20:06:58.008Z,99.90
2022-11-08T20:09:30.510Z,99.90
2022-11-08T20:11:59.068Z,99.90
2022-11-08T20:14:27.823Z,99.90
2022-11-08T20:16:56.019Z,99.90
2022-11-08T20:19:24.117Z,99.90
2022-11-08T20:22:00.336Z,99.90
2022-11-08T20:24:30.968Z,99.90
2022-11-08T20:27:00.032Z,99.90
2022-11-08T20:29:37.486Z,99.90
2022-11-08T20:32:07.554Z,99.90
2022-11-08T20:34:38.612Z,99.90
2022-11-08T20:37:16.068Z,99.90
2022-11-08T20:39:45.448Z,99.90
2022-11-08T20:42:18.602Z,99.90
2022-11-08T20:44:47.365Z,99.90
2022-11-08T20:47:16.312Z,99.90
2022-11-08T20:49:48.113Z,99.90
2022-11-08T20:52:22.707Z,99.90
2022-11-08T20:54:51.655Z,99.90
2022-11-08T20:57:20.984Z,99.90
2022-11-08T20:59:51.400Z,99.90
2022-11-08T21:02:22.445Z,99.90
2022-11-08T21:04:51.311Z,99.90
2022-11-08T21:10:40.730Z,99.90
2022-11-08T21:13:01.973Z,99.90
2022-11-08T21:15:30.622Z,99.90
2022-11-08T21:17:59.152Z,99.90
2022-11-08T21:20:27.256Z,99.90
2022-11-08T21:22:56.901Z,99.90
2022-11-08T21:25:32.390Z,99.90
2022-11-08T21:28:00.881Z,99.90
2022-11-08T21:30:29.286Z,99.90
2022-11-08T21:32:57.477Z,99.90
2022-11-08T21:35:25.789Z,99.90
2022-11-08T21:37:54.028Z,99.90
2022-11-08T21:40:23.862Z,99.90
2022-11-08T21:42:52.158Z,99.90
2022-11-08T21:45:20.327Z,99.90
2022-11-08T21:47:52.602Z,99.90
2022-11-08T21:50:21.882Z,99.90
2022-11-08T21:52:51.676Z,99.90
2022-11-08T21:55:20.439Z,99.90
2022-11-08T21:57:49.842Z,99.90
2022-11-08T22:00:18.535Z,99.90
2022-11-08T22:02:46.669Z,99.90
2022-11-08T22:05:14.932Z,99.90
2022-11-08T22:07:43.225Z,99.90
2022-11-08T22:10:12.666Z,99.90
2022-11-08T22:12:43.866Z,99.90
2022-11-08T22:15:13.852Z,99.90
2022-11-08T22:18:00.919Z,99.90
2022-11-08T22:20:30.576Z,99.90
2022-11-08T22:23:08.906Z,99.90
2022-11-08T22:25:40.224Z,99.90
2022-11-08T22:28:08.333Z,99.90
2022-11-08T22:30:37.780Z,99.90
2022-11-08T22:33:06.208Z,99.90
2022-11-08T22:35:34.376Z,99.90
2022-11-08T22:38:02.902Z,99.90
2022-11-08T22:40:34.489Z,99.90
2022-11-08T22:43:02.658Z,99.90
2022-11-08T22:45:30.921Z,99.90
2022-11-08T22:48:00.525Z,99.90
2022-11-08T22:50:28.513Z,99.90
2022-11-08T22:52:56.552Z,99.90
2022-11-08T22:55:24.722Z,99.90
2022-11-08T22:57:53.711Z,99.90
2022-11-08T23:00:22.335Z,99.90
2022-11-08T23:02:50.582Z,99.90
2022-11-08T23:05:19.972Z,99.90
2022-11-08T23:07:47.943Z,99.90
2022-11-08T23:10:16.338Z,99.90
2022-11-08T23:13:01.743Z,99.90
2022-11-08T23:15:47.160Z,99.90
2022-11-08T23:18:15.459Z,99.90
2022-11-08T23:21:02.681Z,99.90
2022-11-08T23:23:48.356Z,99.90
2022-11-08T23:26:38.155Z,99.90
2022-11-08T23:29:26.186Z,99.90
2022-11-08T23:31:54.123Z,99.90
2022-11-08T23:34:26.416Z,99.90
2022-11-08T23:36:58.159Z,99.90
2022-11-08T23:39:26.326Z,99.90
2022-11-08T23:42:11.627Z,99.90
2022-11-08T23:44:39.617Z,99.90
2022-11-08T23:47:07.787Z,99.90
2022-11-08T23:49:35.894Z,99.90
2022-11-08T23:52:05.712Z,99.90
2022-11-08T23:54:33.775Z,99.90
2022-11-08T23:57:02.863Z,99.90
2022-11-08T23:59:31.108Z,99.90
